createdAt,value
2023-10-23T00:00:14.357Z,12.59
2023-10-23T00:03:06.748Z,12.53
2023-10-23T00:05:38.829Z,12.51
2023-10-23T00:08:11.175Z,12.44
2023-10-23T00:10:43.570Z,12.44
2023-10-23T00:13:15.367Z,12.43
2023-10-23T00:15:47.151Z,12.52
2023-10-23T00:18:19.049Z,12.48
2023-10-23T00:20:51.271Z,12.51
2023-10-23T00:23:23.058Z,12.60
2023-10-23T00:25:55.118Z,12.64
2023-10-23T00:28:26.859Z,12.69
2023-10-23T00:30:59.179Z,12.72
2023-10-23T00:33:31.387Z,12.73
2023-10-23T00:36:03.323Z,12.75
2023-10-23T00:38:35.726Z,12.70
2023-10-23T00:41:07.597Z,12.65
2023-10-23T00:43:40.817Z,12.67
2023-10-23T00:46:16.013Z,12.61
2023-10-23T00:48:49.824Z,12.67
2023-10-23T00:51:21.813Z,12.69
2023-10-23T00:53:54.997Z,12.68
2023-10-23T00:56:27.280Z,12.70
2023-10-23T00:58:59.635Z,12.70
2023-10-23T01:01:33.731Z,12.64
2023-10-23T01:04:06.673Z,12.51
2023-10-23T01:06:37.136Z,12.55
2023-10-23T01:09:09.987Z,12.52
2023-10-23T01:11:40.231Z,12.51
2023-10-23T01:14:12.305Z,12.54
2023-10-23T01:16:44.128Z,12.56
2023-10-23T01:19:16.055Z,12.55
2023-10-23T01:21:48.942Z,12.59
2023-10-23T01:24:23.973Z,12.61
2023-10-23T01:26:56.912Z,12.63
2023-10-23T01:29:28.680Z,12.60
2023-10-23T01:32:00.496Z,12.58
2023-10-23T01:34:32.720Z,12.57
2023-10-23T01:37:04.633Z,12.55
2023-10-23T01:39:36.465Z,12.51
2023-10-23T01:42:09.285Z,12.55
2023-10-23T01:44:41.147Z,12.53
2023-10-23T01:47:13.077Z,12.56
2023-10-23T01:49:44.885Z,12.59
2023-10-23T01:52:16.964Z,12.61
2023-10-23T01:54:51.941Z,12.66
2023-10-23T01:57:24.183Z,12.69
2023-10-23T02:00:04.494Z,12.68
2023-10-23T02:02:44.282Z,12.69
2023-10-23T02:05:16.399Z,12.69
2023-10-23T02:07:48.175Z,12.67
2023-10-23T02:10:22.203Z,12.60
2023-10-23T02:12:54.779Z,12.61
2023-10-23T02:15:27.062Z,12.57
2023-10-23T02:17:59.326Z,12.47
2023-10-23T02:20:31.296Z,12.55
2023-10-23T02:23:03.149Z,12.57
2023-10-23T02:25:34.979Z,12.60
2023-10-23T02:28:07.214Z,12.61
2023-10-23T02:30:40.303Z,12.58
2023-10-23T02:33:12.164Z,12.56
2023-10-23T02:35:44.567Z,12.62
2023-10-23T02:38:16.545Z,12.62
2023-10-23T02:40:55.487Z,12.60
2023-10-23T02:43:27.669Z,12.59
2023-10-23T02:46:03.776Z,12.58
2023-10-23T02:48:35.893Z,12.60
2023-10-23T02:51:07.796Z,12.60
2023-10-23T02:53:40.212Z,12.58
2023-10-23T02:56:15.112Z,12.56
2023-10-23T02:58:46.960Z,12.57
2023-10-23T03:01:21.599Z,12.54
2023-10-23T03:03:54.213Z,12.51
2023-10-23T03:06:26.190Z,12.52
2023-10-23T03:08:58.769Z,12.52
2023-10-23T03:11:32.248Z,12.52
2023-10-23T03:14:04.993Z,12.51
2023-10-23T03:16:37.697Z,12.44
2023-10-23T03:19:09.455Z,12.41
2023-10-23T03:21:41.237Z,12.46
2023-10-23T03:24:12.541Z,12.47
2023-10-23T03:26:44.841Z,12.45
2023-10-23T03:29:17.870Z,12.46
2023-10-23T03:31:49.777Z,12.46
2023-10-23T03:34:21.695Z,12.46
2023-10-23T03:36:54.105Z,12.47
2023-10-23T03:39:26.008Z,12.49
2023-10-23T03:41:57.889Z,12.52
2023-10-23T03:44:29.819Z,12.53
2023-10-23T03:47:01.692Z,12.51
2023-10-23T03:49:33.703Z,12.49
2023-10-23T03:52:05.855Z,12.50
2023-10-23T03:54:38.390Z,12.47
2023-10-23T03:57:10.216Z,12.46
2023-10-23T03:59:45.305Z,12.46
2023-10-23T04:02:17.319Z,12.45
2023-10-23T04:04:49.189Z,12.46
2023-10-23T04:07:21.461Z,12.48
2023-10-23T04:09:53.563Z,12.48
2023-10-23T04:12:25.410Z,12.47
2023-10-23T04:14:57.467Z,12.49
2023-10-23T04:17:29.287Z,12.48
2023-10-23T04:20:01.181Z,12.49
2023-10-23T04:22:33.023Z,12.50
2023-10-23T04:25:05.247Z,12.46
2023-10-23T04:27:37.496Z,12.51
2023-10-23T04:30:12.129Z,12.50
2023-10-23T04:32:44.010Z,12.49
2023-10-23T04:35:15.918Z,12.50
2023-10-23T04:37:47.716Z,12.34
2023-10-23T04:40:19.708Z,12.31
2023-10-23T04:42:51.741Z,12.29
2023-10-23T04:45:23.650Z,12.13
2023-10-23T04:47:55.484Z,12.26
2023-10-23T04:50:27.296Z,12.33
2023-10-23T04:53:00.591Z,12.35
2023-10-23T04:55:36.647Z,12.36
2023-10-23T04:58:09.197Z,12.37
2023-10-23T05:00:41.629Z,12.36
2023-10-23T05:03:13.735Z,12.33
2023-10-23T05:05:50.261Z,12.26
2023-10-23T05:08:22.150Z,12.25
2023-10-23T05:10:53.915Z,12.31
2023-10-23T05:13:26.416Z,12.32
2023-10-23T05:16:05.768Z,12.33
2023-10-23T05:18:37.934Z,12.32
2023-10-23T05:21:11.894Z,12.27
2023-10-23T05:23:44.119Z,12.27
2023-10-23T05:26:16.381Z,12.27
2023-10-23T05:28:49.050Z,12.25
2023-10-23T05:31:21.639Z,12.27
2023-10-23T05:33:53.627Z,12.29
2023-10-23T05:36:25.596Z,12.31
2023-10-23T05:38:57.436Z,12.31
2023-10-23T05:41:29.239Z,12.31
2023-10-23T05:44:01.218Z,12.33
2023-10-23T05:46:33.339Z,12.32
2023-10-23T05:49:05.215Z,12.32
2023-10-23T05:51:37.667Z,12.29
2023-10-23T05:54:10.871Z,12.33
2023-10-23T05:56:42.844Z,12.30
2023-10-23T05:59:14.847Z,12.33
2023-10-23T06:01:46.766Z,12.32
2023-10-23T06:04:18.763Z,12.33
2023-10-23T06:06:50.878Z,12.34
2023-10-23T06:09:22.813Z,12.31
2023-10-23T06:11:54.733Z,12.34
2023-10-23T06:14:26.549Z,12.32
2023-10-23T06:16:58.786Z,12.28
2023-10-23T06:19:32.702Z,12.25
2023-10-23T06:22:04.763Z,12.24
2023-10-23T06:24:37.042Z,12.21
2023-10-23T06:27:08.937Z,12.10
2023-10-23T06:29:40.832Z,12.12
2023-10-23T06:32:14.467Z,12.21
2023-10-23T06:34:46.662Z,12.31
2023-10-23T06:37:18.511Z,12.34
2023-10-23T06:39:50.522Z,12.29
2023-10-23T06:42:22.278Z,12.26
2023-10-23T06:44:54.832Z,12.32
2023-10-23T06:47:26.804Z,12.31
2023-10-23T06:49:59.966Z,12.19
2023-10-23T06:52:31.863Z,12.22
2023-10-23T06:55:04.267Z,12.36
2023-10-23T06:57:36.302Z,12.41
2023-10-23T07:00:11.235Z,12.46
2023-10-23T07:02:43.225Z,12.54
2023-10-23T07:05:15.367Z,12.64
2023-10-23T07:07:47.233Z,12.69
2023-10-23T07:10:19.201Z,12.70
2023-10-23T07:12:51.081Z,12.55
2023-10-23T07:15:22.944Z,12.56
2023-10-23T07:17:55.294Z,12.64
2023-10-23T07:20:27.812Z,12.73
2023-10-23T07:23:00.442Z,12.76
2023-10-23T07:25:32.455Z,12.82
2023-10-23T07:28:04.218Z,12.80
2023-10-23T07:30:37.029Z,12.90
2023-10-23T07:33:08.937Z,12.94
2023-10-23T07:35:52.518Z,12.94
2023-10-23T07:38:25.285Z,12.95
2023-10-23T07:40:57.201Z,12.96
2023-10-23T07:43:29.660Z,12.90
2023-10-23T07:46:15.722Z,13.00
2023-10-23T07:48:49.158Z,13.11
2023-10-23T07:51:21.115Z,13.01
2023-10-23T07:53:53.020Z,13.02
2023-10-23T07:56:25.420Z,13.08
2023-10-23T07:58:58.070Z,13.15
2023-10-23T08:01:28.658Z,13.25
2023-10-23T08:04:00.655Z,13.28
2023-10-23T08:06:32.872Z,13.37
2023-10-23T08:09:05.604Z,13.31
2023-10-23T08:11:37.657Z,13.34
2023-10-23T08:14:09.584Z,13.43
2023-10-23T08:16:41.558Z,13.46
2023-10-23T08:19:14.149Z,13.56
2023-10-23T08:21:46.237Z,13.64
2023-10-23T08:24:18.358Z,13.73
2023-10-23T08:26:51.430Z,13.77
2023-10-23T08:29:23.305Z,13.72
2023-10-23T08:31:55.486Z,13.73
2023-10-23T08:34:27.629Z,13.74
2023-10-23T08:36:59.706Z,13.76
2023-10-23T08:39:31.772Z,13.78
2023-10-23T08:42:03.002Z,13.84
2023-10-23T08:44:35.036Z,13.87
2023-10-23T08:47:07.642Z,13.93
2023-10-23T08:49:39.812Z,13.94
2023-10-23T08:52:13.792Z,14.04
2023-10-23T08:54:48.171Z,13.99
2023-10-23T08:57:22.021Z,13.95
2023-10-23T08:59:53.924Z,14.05
2023-10-23T09:02:26.569Z,14.13
2023-10-23T09:04:58.831Z,14.14
2023-10-23T09:07:31.007Z,14.00
2023-10-23T09:10:05.054Z,13.91
2023-10-23T09:12:40.625Z,13.89
2023-10-23T09:15:21.816Z,13.80
2023-10-23T09:17:54.726Z,13.89
2023-10-23T09:20:28.789Z,13.89
2023-10-23T09:23:01.846Z,14.04
2023-10-23T09:25:33.794Z,14.01
2023-10-23T09:28:13.721Z,14.12
2023-10-23T09:30:46.640Z,14.16
2023-10-23T09:33:18.669Z,14.24
2023-10-23T09:35:51.405Z,14.36
2023-10-23T09:38:24.237Z,14.35
2023-10-23T09:40:58.259Z,14.44
2023-10-23T09:43:30.321Z,14.57
2023-10-23T09:46:04.442Z,14.64
2023-10-23T09:48:39.462Z,14.72
2023-10-23T09:51:16.380Z,14.61
2023-10-23T09:53:51.346Z,14.62
2023-10-23T09:56:24.801Z,14.64
2023-10-23T09:59:02.304Z,14.79
2023-10-23T10:01:42.044Z,14.90
2023-10-23T10:04:23.859Z,15.03
2023-10-23T10:07:01.218Z,15.11
2023-10-23T10:09:34.352Z,15.05
2023-10-23T10:12:08.424Z,15.22
2023-10-23T10:14:42.921Z,15.26
2023-10-23T10:17:17.052Z,15.36
2023-10-23T10:19:49.418Z,15.50
2023-10-23T10:22:29.806Z,15.43
2023-10-23T10:25:02.036Z,15.47
2023-10-23T10:27:34.840Z,15.28
2023-10-23T10:30:29.928Z,15.17
2023-10-23T10:34:25.405Z,15.30
2023-10-23T10:36:00.527Z,15.31
2023-10-23T10:38:33.814Z,15.34
2023-10-23T10:41:07.320Z,15.41
2023-10-23T10:43:40.588Z,15.48
2023-10-23T10:46:21.301Z,15.48
2023-10-23T10:48:56.391Z,15.54
2023-10-23T10:51:30.426Z,15.49
2023-10-23T10:54:04.875Z,15.38
2023-10-23T10:56:38.046Z,15.27
2023-10-23T10:59:09.944Z,15.29
2023-10-23T11:01:42.524Z,15.38
2023-10-23T11:04:14.960Z,15.26
2023-10-23T11:06:47.938Z,15.38
2023-10-23T11:09:25.370Z,15.57
2023-10-23T11:12:00.817Z,15.82
2023-10-23T11:14:33.671Z,15.86
2023-10-23T11:17:07.180Z,15.81
2023-10-23T11:19:39.771Z,15.77
2023-10-23T11:22:14.405Z,15.83
2023-10-23T11:24:47.341Z,15.77
2023-10-23T11:27:17.866Z,15.76
2023-10-23T11:29:51.186Z,15.71
2023-10-23T11:32:23.765Z,15.55
2023-10-23T11:34:54.265Z,15.46
2023-10-23T11:37:26.830Z,15.58
2023-10-23T11:40:00.212Z,15.81
2023-10-23T11:42:33.328Z,15.96
2023-10-23T11:45:05.652Z,16.21
2023-10-23T11:47:39.363Z,16.23
2023-10-23T11:50:14.071Z,16.22
2023-10-23T11:52:47.831Z,16.23
2023-10-23T11:55:22.447Z,16.20
2023-10-23T11:57:55.927Z,16.36
2023-10-23T12:00:29.230Z,16.34
2023-10-23T12:03:01.304Z,16.25
2023-10-23T12:05:33.740Z,15.99
2023-10-23T12:08:06.497Z,15.91
2023-10-23T12:10:39.654Z,15.84
2023-10-23T12:13:11.692Z,15.90
2023-10-23T12:15:44.212Z,15.97
2023-10-23T12:18:16.180Z,16.22
2023-10-23T12:20:48.737Z,16.49
2023-10-23T12:23:21.255Z,16.61
2023-10-23T12:25:54.053Z,16.70
2023-10-23T12:28:27.317Z,16.82
2023-10-23T12:31:00.099Z,17.05
2023-10-23T12:33:38.242Z,17.19
2023-10-23T12:36:11.388Z,17.03
2023-10-23T12:38:43.232Z,16.77
2023-10-23T12:41:15.668Z,16.64
2023-10-23T12:43:48.428Z,16.62
2023-10-23T12:46:21.289Z,16.64
2023-10-23T12:48:53.608Z,16.60
2023-10-23T12:51:27.644Z,16.61
2023-10-23T12:53:59.526Z,16.49
2023-10-23T12:56:32.964Z,16.36
2023-10-23T12:59:06.154Z,16.27
2023-10-23T13:01:38.146Z,16.21
2023-10-23T13:04:10.359Z,16.38
2023-10-23T13:06:42.452Z,16.57
2023-10-23T13:09:16.833Z,16.76
2023-10-23T13:11:49.238Z,16.77
2023-10-23T13:14:21.150Z,16.79
2023-10-23T13:16:53.685Z,16.91
2023-10-23T13:19:24.536Z,16.96
2023-10-23T13:21:56.913Z,16.95
2023-10-23T13:24:28.746Z,16.82
2023-10-23T13:27:01.126Z,16.71
2023-10-23T13:29:33.684Z,16.70
2023-10-23T13:32:05.983Z,16.81
2023-10-23T13:34:38.077Z,16.75
2023-10-23T13:37:09.275Z,16.75
2023-10-23T13:39:41.275Z,16.67
2023-10-23T13:42:13.141Z,16.63
2023-10-23T13:44:45.028Z,16.64
2023-10-23T13:47:18.569Z,16.71
2023-10-23T13:49:50.374Z,16.79
2023-10-23T13:52:22.466Z,16.81
2023-10-23T13:54:54.415Z,16.81
2023-10-23T13:57:26.391Z,16.72
2023-10-23T13:59:58.231Z,16.60
2023-10-23T14:02:30.189Z,16.44
2023-10-23T14:05:02.136Z,16.36
2023-10-23T14:07:34.135Z,16.36
2023-10-23T14:10:07.256Z,16.41
2023-10-23T14:12:39.214Z,16.46
2023-10-23T14:15:12.426Z,16.37
2023-10-23T14:17:44.293Z,16.29
2023-10-23T14:20:16.795Z,16.30
2023-10-23T14:22:48.608Z,16.35
2023-10-23T14:25:20.824Z,16.38
2023-10-23T14:27:52.745Z,16.35
2023-10-23T14:30:24.767Z,16.39
2023-10-23T14:32:57.144Z,16.32
2023-10-23T14:35:32.344Z,16.21
2023-10-23T14:38:05.125Z,16.22
2023-10-23T14:40:37.051Z,16.13
2023-10-23T14:43:09.040Z,16.03
2023-10-23T14:45:41.633Z,15.98
2023-10-23T14:48:13.456Z,15.97
2023-10-23T14:50:45.287Z,15.98
2023-10-23T14:53:17.132Z,16.00
2023-10-23T14:55:49.009Z,15.99
2023-10-23T14:58:21.328Z,15.98
2023-10-23T15:00:53.214Z,15.97
2023-10-23T15:03:25.538Z,15.90
2023-10-23T15:05:57.332Z,15.79
2023-10-23T15:08:29.180Z,15.71
2023-10-23T15:11:01.052Z,15.64
2023-10-23T15:13:33.130Z,15.58
2023-10-23T15:16:05.835Z,15.58
2023-10-23T15:18:36.758Z,15.50
2023-10-23T15:21:09.604Z,15.44
2023-10-23T15:23:42.149Z,15.35
2023-10-23T15:26:14.101Z,15.23
2023-10-23T15:28:45.905Z,15.16
2023-10-23T15:31:20.491Z,15.05
2023-10-23T15:33:52.617Z,14.99
2023-10-23T15:36:24.545Z,14.95
2023-10-23T15:38:56.621Z,14.91
2023-10-23T15:41:28.730Z,14.83
2023-10-23T15:44:00.831Z,14.71
2023-10-23T15:46:32.791Z,14.62
2023-10-23T15:49:04.720Z,14.55
2023-10-23T15:51:36.868Z,14.42
2023-10-23T15:54:09.176Z,14.38
2023-10-23T15:56:43.681Z,14.29
2023-10-23T15:59:15.695Z,14.28
2023-10-23T16:01:47.649Z,14.21
2023-10-23T16:04:19.646Z,14.20
2023-10-23T16:06:51.676Z,14.06
2023-10-23T16:09:27.382Z,14.00
2023-10-23T16:12:09.968Z,13.95
2023-10-23T16:14:55.724Z,13.87
2023-10-23T16:17:29.286Z,13.83
2023-10-23T16:20:01.097Z,13.82
2023-10-23T16:22:33.357Z,13.72
2023-10-23T16:25:06.926Z,13.65
2023-10-23T16:27:38.937Z,13.66
2023-10-23T16:30:13.783Z,13.58
2023-10-23T16:32:46.337Z,13.61
2023-10-23T16:35:17.555Z,13.52
2023-10-23T16:37:49.415Z,13.50
2023-10-23T16:40:25.677Z,13.48
2023-10-23T16:42:57.583Z,13.43
2023-10-23T16:45:30.053Z,13.39
2023-10-23T16:48:03.974Z,13.39
2023-10-23T16:50:36.416Z,13.38
2023-10-23T16:53:08.240Z,13.23
2023-10-23T16:55:40.045Z,13.09
2023-10-23T16:58:14.338Z,13.01
2023-10-23T17:00:46.403Z,13.01
2023-10-23T17:03:18.420Z,13.03
2023-10-23T17:05:51.010Z,12.99
2023-10-23T17:08:22.992Z,12.99
2023-10-23T17:11:03.895Z,13.01
2023-10-23T17:13:35.887Z,12.83
2023-10-23T17:16:08.732Z,12.74
2023-10-23T17:18:39.610Z,12.70
2023-10-23T17:21:11.513Z,13.40
2023-10-23T17:23:44.257Z,14.35
2023-10-23T17:26:17.545Z,13.69
2023-10-23T17:28:51.201Z,13.34
2023-10-23T17:31:23.266Z,13.20
2023-10-23T17:33:55.196Z,13.13
2023-10-23T17:36:30.203Z,13.04
2023-10-23T17:39:02.104Z,12.94
2023-10-23T17:41:34.210Z,12.85
2023-10-23T17:44:06.707Z,12.71
2023-10-23T17:46:38.550Z,12.51
2023-10-23T17:49:10.617Z,12.43
2023-10-23T17:51:42.479Z,12.34
2023-10-23T17:54:16.427Z,12.37
2023-10-23T17:56:48.668Z,12.44
2023-10-23T17:59:20.554Z,12.51
2023-10-23T18:01:52.560Z,12.49
2023-10-23T18:04:24.987Z,12.45
2023-10-23T18:06:57.248Z,12.34
2023-10-23T18:09:29.741Z,12.33
2023-10-23T18:12:01.975Z,12.32
2023-10-23T18:14:35.184Z,12.13
2023-10-23T18:17:08.191Z,12.09
2023-10-23T18:19:40.207Z,12.09
2023-10-23T18:22:12.252Z,12.18
2023-10-23T18:24:44.078Z,12.18
2023-10-23T18:27:16.591Z,12.15
2023-10-23T18:29:48.842Z,12.06
2023-10-23T18:32:20.699Z,12.09
2023-10-23T18:34:54.392Z,12.08
2023-10-23T18:37:26.382Z,12.06
2023-10-23T18:39:58.360Z,12.10
2023-10-23T18:42:32.582Z,12.00
2023-10-23T18:45:06.342Z,12.01
2023-10-23T18:47:39.536Z,12.06
2023-10-23T18:50:12.626Z,12.05
2023-10-23T18:52:44.481Z,11.99
2023-10-23T18:55:16.681Z,12.03
2023-10-23T18:57:48.653Z,12.03
2023-10-23T19:00:22.367Z,11.96
2023-10-23T19:02:54.425Z,11.89
2023-10-23T19:05:26.725Z,11.81
2023-10-23T19:07:58.805Z,11.72
2023-10-23T19:10:31.061Z,11.67
2023-10-23T19:13:03.197Z,11.73
2023-10-23T19:15:35.202Z,11.68
2023-10-23T19:18:07.954Z,11.65
2023-10-23T19:20:40.167Z,11.66
2023-10-23T19:23:12.595Z,11.64
2023-10-23T19:25:51.324Z,11.55
2023-10-23T19:28:23.865Z,11.49
2023-10-23T19:30:57.865Z,11.55
2023-10-23T19:33:30.680Z,11.63
2023-10-23T19:36:03.918Z,11.54
2023-10-23T19:38:37.181Z,11.48
2023-10-23T19:41:15.807Z,11.49
2023-10-23T19:43:50.283Z,11.51
2023-10-23T19:46:23.757Z,11.55
2023-10-23T19:48:56.962Z,11.52
2023-10-23T19:51:30.700Z,11.44
2023-10-23T19:54:04.815Z,11.37
2023-10-23T19:56:39.563Z,11.26
2023-10-23T19:59:11.936Z,11.15
2023-10-23T20:01:44.040Z,11.12
2023-10-23T20:04:16.631Z,11.14
2023-10-23T20:06:48.983Z,11.17
2023-10-23T20:09:21.501Z,11.19
2023-10-23T20:11:53.524Z,11.27
2023-10-23T20:14:25.446Z,11.31
2023-10-23T20:16:57.355Z,11.33
2023-10-23T20:19:29.418Z,11.37
2023-10-23T20:22:04.294Z,11.35
2023-10-23T20:24:36.187Z,11.33
2023-10-23T20:27:08.167Z,11.30
2023-10-23T20:29:40.282Z,11.28
2023-10-23T20:32:13.134Z,11.29
2023-10-23T20:34:44.977Z,11.20
2023-10-23T20:37:16.840Z,11.07
2023-10-23T20:39:48.609Z,10.91
2023-10-23T20:42:20.363Z,10.82
2023-10-23T20:44:55.018Z,10.80
2023-10-23T20:47:26.976Z,10.84
2023-10-23T20:50:00.080Z,10.94
2023-10-23T20:52:33.860Z,10.96
2023-10-23T20:55:07.235Z,11.01
2023-10-23T20:57:39.756Z,11.04
2023-10-23T21:00:13.869Z,10.98
2023-10-23T21:02:45.766Z,10.98
2023-10-23T21:05:18.088Z,11.00
2023-10-23T21:07:49.908Z,11.03
2023-10-23T21:10:22.447Z,10.94
2023-10-23T21:12:54.217Z,10.89
2023-10-23T21:15:26.094Z,10.95
2023-10-23T21:17:58.118Z,10.95
2023-10-23T21:20:30.053Z,10.86
2023-10-23T21:23:02.527Z,10.81
2023-10-23T21:25:34.586Z,10.73
2023-10-23T21:28:06.864Z,10.75
2023-10-23T21:30:39.001Z,10.85
2023-10-23T21:33:10.900Z,10.83
2023-10-23T21:35:42.654Z,10.72
2023-10-23T21:38:14.944Z,10.69
2023-10-23T21:40:49.942Z,10.73
2023-10-23T21:43:21.997Z,10.75
2023-10-23T21:46:15.079Z,10.74
2023-10-23T21:48:45.816Z,10.82
2023-10-23T21:51:17.653Z,10.92
2023-10-23T21:53:50.401Z,10.97
2023-10-23T21:56:38.205Z,11.02
2023-10-23T21:59:19.273Z,11.08
2023-10-23T22:01:53.909Z,11.09
2023-10-23T22:04:27.520Z,11.07
2023-10-23T22:07:00.615Z,11.02
2023-10-23T22:09:35.051Z,10.95
2023-10-23T22:12:11.376Z,10.97
2023-10-23T22:14:43.861Z,11.00
2023-10-23T22:17:15.783Z,10.97
2023-10-23T22:19:47.691Z,10.97
2023-10-23T22:22:19.873Z,11.00
2023-10-23T22:24:51.638Z,11.09
2023-10-23T22:27:23.531Z,11.14
2023-10-23T22:29:55.242Z,11.11
2023-10-23T22:32:27.222Z,11.11
2023-10-23T22:34:59.790Z,11.07
2023-10-23T22:38:00.255Z,11.07
2023-10-23T22:40:23.578Z,11.00
2023-10-23T22:42:54.799Z,10.90
2023-10-23T22:45:26.657Z,10.97
2023-10-23T22:47:58.497Z,11.00
2023-10-23T22:50:31.372Z,11.01
2023-10-23T22:53:04.110Z,10.98
2023-10-23T22:55:37.629Z,10.97
2023-10-23T22:58:13.212Z,10.95
2023-10-23T23:00:46.008Z,10.89
2023-10-23T23:03:18.843Z,10.89
2023-10-23T23:05:50.729Z,10.81
2023-10-23T23:08:26.055Z,10.68
2023-10-23T23:10:58.883Z,10.73
2023-10-23T23:13:29.662Z,10.77
2023-10-23T23:16:05.780Z,10.75
2023-10-23T23:18:40.787Z,10.77
2023-10-23T23:21:14.366Z,10.72
2023-10-23T23:23:46.377Z,10.74
2023-10-23T23:26:18.714Z,10.65
2023-10-23T23:28:50.401Z,10.65
2023-10-23T23:31:22.212Z,10.63
2023-10-23T23:33:54.928Z,10.57
2023-10-23T23:36:26.612Z,10.54
2023-10-23T23:38:58.712Z,10.54
2023-10-23T23:41:30.872Z,10.51
2023-10-23T23:44:02.914Z,10.44
2023-10-23T23:46:34.703Z,10.38
2023-10-23T23:49:06.691Z,10.40
2023-10-23T23:51:38.515Z,10.38
2023-10-23T23:54:10.343Z,10.44
2023-10-23T23:56:42.711Z,10.49
2023-10-23T23:59:14.475Z,10.52
